sensor_id;sensor_type;location;lat;lon;timestamp;temperature;humidity
5786;DHT22;2919;48.630;9.000;2022-08-19T00:00:25;19.50;99.90
5786;DHT22;2919;48.630;9.000;2022-08-19T00:02:51;19.50;99.90
5786;DHT22;2919;48.630;9.000;2022-08-19T00:05:17;19.50;99.90
5786;DHT22;2919;48.630;9.000;2022-08-19T00:07:45;19.50;99.90
5786;DHT22;2919;48.630;9.000;2022-08-19T00:10:13;19.50;99.90
5786;DHT22;2919;48.630;9.000;2022-08-19T00:12:40;19.50;99.90
5786;DHT22;2919;48.630;9.000;2022-08-19T00:15:08;19.50;99.90
5786;DHT22;2919;48.630;9.000;2022-08-19T00:17:37;19.50;99.90
5786;DHT22;2919;48.630;9.000;2022-08-19T00:20:03;19.50;99.90
5786;DHT22;2919;48.630;9.000;2022-08-19T00:22:29;19.50;99.90
5786;DHT22;2919;48.630;9.000;2022-08-19T00:24:55;19.50;99.90
5786;DHT22;2919;48.630;9.000;2022-08-19T00:27:21;19.50;99.90
5786;DHT22;2919;48.630;9.000;2022-08-19T00:29:46;19.50;99.90
5786;DHT22;2919;48.630;9.000;2022-08-19T00:32:12;19.40;99.90
5786;DHT22;2919;48.630;9.000;2022-08-19T00:34:37;19.40;99.90
5786;DHT22;2919;48.630;9.000;2022-08-19T00:37:03;19.40;99.90
5786;DHT22;2919;48.630;9.000;2022-08-19T00:39:29;19.40;99.90
5786;DHT22;2919;48.630;9.000;2022-08-19T00:41:55;19.40;99.90
5786;DHT22;2919;48.630;9.000;2022-08-19T00:44:25;19.30;99.90
5786;DHT22;2919;48.630;9.000;2022-08-19T00:46:53;19.30;99.90
5786;DHT22;2919;48.630;9.000;2022-08-19T00:49:32;19.30;99.90
5786;DHT22;2919;48.630;9.000;2022-08-19T00:52:09;19.30;99.90
5786;DHT22;2919;48.630;9.000;2022-08-19T00:54:38;19.30;99.90
5786;DHT22;2919;48.630;9.000;2022-08-19T00:57:06;19.20;99.90
5786;DHT22;2919;48.630;9.000;2022-08-19T00:59:35;19.20;99.90
5786;DHT22;2919;48.630;9.000;2022-08-19T01:02:02;19.10;99.90
5786;DHT22;2919;48.630;9.000;2022-08-19T01:04:27;19.10;99.90
5786;DHT22;2919;48.630;9.000;2022-08-19T01:06:53;19.00;99.90
5786;DHT22;2919;48.630;9.000;2022-08-19T01:09:19;19.00;99.90
5786;DHT22;2919;48.630;9.000;2022-08-19T01:11:44;18.90;99.90
5786;DHT22;2919;48.630;9.000;2022-08-19T01:14:11;18.90;99.90
5786;DHT22;2919;48.630;9.000;2022-08-19T01:16:39;18.90;99.90
5786;DHT22;2919;48.630;9.000;2022-08-19T01:22:06;18.80;99.90
5786;DHT22;2919;48.630;9.000;2022-08-19T01:24:33;18.80;99.90
5786;DHT22;2919;48.630;9.000;2022-08-19T01:26:59;18.80;99.90
5786;DHT22;2919;48.630;9.000;2022-08-19T01:29:25;18.80;99.90
5786;DHT22;2919;48.630;9.000;2022-08-19T01:31:50;18.80;99.90
5786;DHT22;2919;48.630;9.000;2022-08-19T01:34:18;18.80;99.90
5786;DHT22;2919;48.630;9.000;2022-08-19T01:36:46;18.70;99.90
5786;DHT22;2919;48.630;9.000;2022-08-19T01:39:21;18.70;99.90
5786;DHT22;2919;48.630;9.000;2022-08-19T01:41:48;18.70;99.90
5786;DHT22;2919;48.630;9.000;2022-08-19T01:44:14;18.70;99.90
5786;DHT22;2919;48.630;9.000;2022-08-19T01:46:41;18.60;99.90
5786;DHT22;2919;48.630;9.000;2022-08-19T01:49:08;18.60;99.90
5786;DHT22;2919;48.630;9.000;2022-08-19T01:51:35;18.60;99.90
5786;DHT22;2919;48.630;9.000;2022-08-19T01:54:00;18.50;99.90
5786;DHT22;2919;48.630;9.000;2022-08-19T01:56:26;18.50;99.90
5786;DHT22;2919;48.630;9.000;2022-08-19T01:59:05;18.50;99.90
5786;DHT22;2919;48.630;9.000;2022-08-19T02:01:32;18.50;99.90
5786;DHT22;2919;48.630;9.000;2022-08-19T02:03:59;18.50;99.90
5786;DHT22;2919;48.630;9.000;2022-08-19T02:06:28;18.50;99.90
5786;DHT22;2919;48.630;9.000;2022-08-19T02:08:54;18.50;99.90
5786;DHT22;2919;48.630;9.000;2022-08-19T02:11:23;18.40;99.90
5786;DHT22;2919;48.630;9.000;2022-08-19T02:13:52;18.40;99.90
5786;DHT22;2919;48.630;9.000;2022-08-19T02:16:18;18.40;99.90
5786;DHT22;2919;48.630;9.000;2022-08-19T02:18:46;18.40;99.90
5786;DHT22;2919;48.630;9.000;2022-08-19T02:21:14;18.40;99.90
5786;DHT22;2919;48.630;9.000;2022-08-19T02:23:41;18.40;99.90
5786;DHT22;2919;48.630;9.000;2022-08-19T02:26:07;18.40;99.90
5786;DHT22;2919;48.630;9.000;2022-08-19T02:28:32;18.40;99.90
5786;DHT22;2919;48.630;9.000;2022-08-19T02:30:59;18.30;99.90
5786;DHT22;2919;48.630;9.000;2022-08-19T02:33:26;18.40;99.90
5786;DHT22;2919;48.630;9.000;2022-08-19T02:35:52;18.40;99.90
5786;DHT22;2919;48.630;9.000;2022-08-19T02:38:17;18.40;99.90
5786;DHT22;2919;48.630;9.000;2022-08-19T02:41:02;18.30;99.90
5786;DHT22;2919;48.630;9.000;2022-08-19T02:43:30;18.30;99.90
5786;DHT22;2919;48.630;9.000;2022-08-19T02:45:56;18.30;99.90
5786;DHT22;2919;48.630;9.000;2022-08-19T02:48:23;18.30;99.90
5786;DHT22;2919;48.630;9.000;2022-08-19T02:50:51;18.30;99.90
5786;DHT22;2919;48.630;9.000;2022-08-19T02:53:22;18.20;99.90
5786;DHT22;2919;48.630;9.000;2022-08-19T02:55:48;18.20;99.90
5786;DHT22;2919;48.630;9.000;2022-08-19T02:58:15;18.20;99.90
5786;DHT22;2919;48.630;9.000;2022-08-19T03:00:46;18.20;99.90
5786;DHT22;2919;48.630;9.000;2022-08-19T03:03:12;18.20;99.90
5786;DHT22;2919;48.630;9.000;2022-08-19T03:05:38;18.20;99.90
5786;DHT22;2919;48.630;9.000;2022-08-19T03:08:04;18.20;99.90
5786;DHT22;2919;48.630;9.000;2022-08-19T03:10:31;18.20;99.90
5786;DHT22;2919;48.630;9.000;2022-08-19T03:12:57;18.20;99.90
5786;DHT22;2919;48.630;9.000;2022-08-19T03:15:23;18.20;99.90
5786;DHT22;2919;48.630;9.000;2022-08-19T03:17:48;18.20;99.90
5786;DHT22;2919;48.630;9.000;2022-08-19T03:20:14;18.20;99.90
5786;DHT22;2919;48.630;9.000;2022-08-19T03:22:40;18.20;99.90
5786;DHT22;2919;48.630;9.000;2022-08-19T03:25:05;18.10;99.90
5786;DHT22;2919;48.630;9.000;2022-08-19T03:27:31;18.20;99.90
5786;DHT22;2919;48.630;9.000;2022-08-19T03:29:57;18.20;99.90
5786;DHT22;2919;48.630;9.000;2022-08-19T03:32:22;18.20;99.90
5786;DHT22;2919;48.630;9.000;2022-08-19T03:34:48;18.20;99.90
5786;DHT22;2919;48.630;9.000;2022-08-19T03:37:14;18.10;99.90
5786;DHT22;2919;48.630;9.000;2022-08-19T03:39:41;18.10;99.90
5786;DHT22;2919;48.630;9.000;2022-08-19T03:42:08;18.10;99.90
5786;DHT22;2919;48.630;9.000;2022-08-19T03:44:33;18.10;99.90
5786;DHT22;2919;48.630;9.000;2022-08-19T03:47:03;18.10;99.90
5786;DHT22;2919;48.630;9.000;2022-08-19T03:49:31;18.10;99.90
5786;DHT22;2919;48.630;9.000;2022-08-19T03:51:58;18.10;99.90
5786;DHT22;2919;48.630;9.000;2022-08-19T03:54:26;18.10;99.90
5786;DHT22;2919;48.630;9.000;2022-08-19T03:56:54;18.10;99.90
5786;DHT22;2919;48.630;9.000;2022-08-19T03:59:29;18.10;99.90
5786;DHT22;2919;48.630;9.000;2022-08-19T04:01:57;18.10;99.90
5786;DHT22;2919;48.630;9.000;2022-08-19T04:04:23;18.10;99.90
5786;DHT22;2919;48.630;9.000;2022-08-19T04:06:49;18.10;99.90
5786;DHT22;2919;48.630;9.000;2022-08-19T04:09:17;18.10;99.90
5786;DHT22;2919;48.630;9.000;2022-08-19T04:11:47;18.10;99.90
5786;DHT22;2919;48.630;9.000;2022-08-19T04:14:16;18.10;99.90
5786;DHT22;2919;48.630;9.000;2022-08-19T04:16:43;18.20;99.90
5786;DHT22;2919;48.630;9.000;2022-08-19T04:19:10;18.20;99.90
5786;DHT22;2919;48.630;9.000;2022-08-19T04:21:36;18.10;99.90
5786;DHT22;2919;48.630;9.000;2022-08-19T04:24:02;18.10;99.90
5786;DHT22;2919;48.630;9.000;2022-08-19T04:26:32;18.10;99.90
5786;DHT22;2919;48.630;9.000;2022-08-19T04:29:00;18.10;99.90
5786;DHT22;2919;48.630;9.000;2022-08-19T04:31:28;18.10;99.90
5786;DHT22;2919;48.630;9.000;2022-08-19T04:33:55;18.10;99.90
5786;DHT22;2919;48.630;9.000;2022-08-19T04:36:25;18.10;99.90
5786;DHT22;2919;48.630;9.000;2022-08-19T04:38:54;18.10;99.90
5786;DHT22;2919;48.630;9.000;2022-08-19T04:41:21;18.10;99.90
5786;DHT22;2919;48.630;9.000;2022-08-19T04:44:05;18.10;99.90
5786;DHT22;2919;48.630;9.000;2022-08-19T04:46:31;18.10;99.90
5786;DHT22;2919;48.630;9.000;2022-08-19T04:48:58;18.10;99.90
5786;DHT22;2919;48.630;9.000;2022-08-19T04:51:24;18.10;99.90
5786;DHT22;2919;48.630;9.000;2022-08-19T04:53:50;18.10;99.90
5786;DHT22;2919;48.630;9.000;2022-08-19T04:56:19;18.10;99.90
5786;DHT22;2919;48.630;9.000;2022-08-19T04:58:49;18.10;99.90
5786;DHT22;2919;48.630;9.000;2022-08-19T05:01:26;18.20;99.90
5786;DHT22;2919;48.630;9.000;2022-08-19T05:03:52;18.20;99.90
5786;DHT22;2919;48.630;9.000;2022-08-19T05:06:20;18.20;99.90
5786;DHT22;2919;48.630;9.000;2022-08-19T05:08:47;18.20;99.90
5786;DHT22;2919;48.630;9.000;2022-08-19T05:13:38;18.20;99.90
5786;DHT22;2919;48.630;9.000;2022-08-19T05:16:05;18.20;99.90
5786;DHT22;2919;48.630;9.000;2022-08-19T05:18:31;18.20;99.90
5786;DHT22;2919;48.630;9.000;2022-08-19T05:21:18;18.20;99.90
5786;DHT22;2919;48.630;9.000;2022-08-19T05:24:04;18.30;99.90
5786;DHT22;2919;48.630;9.000;2022-08-19T05:26:35;18.30;99.90
5786;DHT22;2919;48.630;9.000;2022-08-19T05:29:01;18.30;99.90
5786;DHT22;2919;48.630;9.000;2022-08-19T05:31:26;18.30;99.90
5786;DHT22;2919;48.630;9.000;2022-08-19T05:33:52;18.30;99.90
5786;DHT22;2919;48.630;9.000;2022-08-19T05:36:18;18.30;99.90
5786;DHT22;2919;48.630;9.000;2022-08-19T05:38:45;18.30;99.90
5786;DHT22;2919;48.630;9.000;2022-08-19T05:41:12;18.40;99.90
5786;DHT22;2919;48.630;9.000;2022-08-19T05:43:38;18.30;99.90
5786;DHT22;2919;48.630;9.000;2022-08-19T05:46:05;18.40;99.90
5786;DHT22;2919;48.630;9.000;2022-08-19T05:48:32;18.30;99.90
5786;DHT22;2919;48.630;9.000;2022-08-19T05:50:58;18.40;99.90
5786;DHT22;2919;48.630;9.000;2022-08-19T05:53:25;18.40;99.90
5786;DHT22;2919;48.630;9.000;2022-08-19T05:55:50;18.40;99.90
5786;DHT22;2919;48.630;9.000;2022-08-19T05:58:16;18.40;99.90
5786;DHT22;2919;48.630;9.000;2022-08-19T06:00:43;18.40;99.90
5786;DHT22;2919;48.630;9.000;2022-08-19T06:03:09;18.40;99.90
5786;DHT22;2919;48.630;9.000;2022-08-19T06:05:35;18.40;99.90
5786;DHT22;2919;48.630;9.000;2022-08-19T06:08:01;18.50;99.90
5786;DHT22;2919;48.630;9.000;2022-08-19T06:10:27;18.40;99.90
5786;DHT22;2919;48.630;9.000;2022-08-19T06:12:53;18.40;99.90
5786;DHT22;2919;48.630;9.000;2022-08-19T06:15:19;18.40;99.90
5786;DHT22;2919;48.630;9.000;2022-08-19T06:17:46;18.40;99.90
5786;DHT22;2919;48.630;9.000;2022-08-19T06:20:13;18.40;99.90
5786;DHT22;2919;48.630;9.000;2022-08-19T06:25:06;18.50;99.90
5786;DHT22;2919;48.630;9.000;2022-08-19T06:27:34;18.50;99.90
5786;DHT22;2919;48.630;9.000;2022-08-19T06:30:01;18.50;99.90
5786;DHT22;2919;48.630;9.000;2022-08-19T06:32:27;18.50;99.90
5786;DHT22;2919;48.630;9.000;2022-08-19T06:34:52;18.50;99.90
5786;DHT22;2919;48.630;9.000;2022-08-19T06:37:18;18.50;99.90
5786;DHT22;2919;48.630;9.000;2022-08-19T06:39:44;18.50;99.90
5786;DHT22;2919;48.630;9.000;2022-08-19T06:42:11;18.50;99.90
5786;DHT22;2919;48.630;9.000;2022-08-19T06:44:40;18.50;99.90
5786;DHT22;2919;48.630;9.000;2022-08-19T06:47:08;18.50;99.90
5786;DHT22;2919;48.630;9.000;2022-08-19T06:49:35;18.60;99.90
5786;DHT22;2919;48.630;9.000;2022-08-19T06:52:01;18.60;99.90
5786;DHT22;2919;48.630;9.000;2022-08-19T06:54:28;18.60;99.90
5786;DHT22;2919;48.630;9.000;2022-08-19T06:56:56;18.70;99.90
5786;DHT22;2919;48.630;9.000;2022-08-19T06:59:23;18.70;99.90
5786;DHT22;2919;48.630;9.000;2022-08-19T07:01:54;18.70;99.90
5786;DHT22;2919;48.630;9.000;2022-08-19T07:04:26;18.70;99.90
5786;DHT22;2919;48.630;9.000;2022-08-19T07:09:50;18.80;99.90
5786;DHT22;2919;48.630;9.000;2022-08-19T07:12:18;18.80;99.90
5786;DHT22;2919;48.630;9.000;2022-08-19T07:14:43;18.80;99.90
5786;DHT22;2919;48.630;9.000;2022-08-19T07:17:11;18.90;99.90
5786;DHT22;2919;48.630;9.000;2022-08-19T07:19:38;18.90;99.90
5786;DHT22;2919;48.630;9.000;2022-08-19T07:22:06;19.00;99.90
5786;DHT22;2919;48.630;9.000;2022-08-19T07:24:32;19.00;99.90
5786;DHT22;2919;48.630;9.000;2022-08-19T07:27:00;19.10;99.90
5786;DHT22;2919;48.630;9.000;2022-08-19T07:29:29;19.20;99.90
5786;DHT22;2919;48.630;9.000;2022-08-19T07:31:56;19.30;99.90
5786;DHT22;2919;48.630;9.000;2022-08-19T07:34:25;19.40;99.90
5786;DHT22;2919;48.630;9.000;2022-08-19T07:36:51;19.40;99.90
5786;DHT22;2919;48.630;9.000;2022-08-19T07:39:20;19.40;99.90
5786;DHT22;2919;48.630;9.000;2022-08-19T07:41:46;19.30;99.90
5786;DHT22;2919;48.630;9.000;2022-08-19T07:44:12;19.40;99.90
5786;DHT22;2919;48.630;9.000;2022-08-19T07:46:40;19.40;99.90
5786;DHT22;2919;48.630;9.000;2022-08-19T07:49:07;19.40;99.90
5786;DHT22;2919;48.630;9.000;2022-08-19T07:51:35;19.40;99.90
5786;DHT22;2919;48.630;9.000;2022-08-19T07:54:01;19.30;99.90
5786;DHT22;2919;48.630;9.000;2022-08-19T07:56:26;19.30;99.90
5786;DHT22;2919;48.630;9.000;2022-08-19T07:58:52;19.40;99.90
5786;DHT22;2919;48.630;9.000;2022-08-19T08:01:23;19.30;99.90
5786;DHT22;2919;48.630;9.000;2022-08-19T08:03:50;19.30;99.90
5786;DHT22;2919;48.630;9.000;2022-08-19T08:06:35;19.20;99.90
5786;DHT22;2919;48.630;9.000;2022-08-19T08:09:37;19.20;99.90
5786;DHT22;2919;48.630;9.000;2022-08-19T08:12:07;19.20;99.90
5786;DHT22;2919;48.630;9.000;2022-08-19T08:17:08;19.10;99.90
5786;DHT22;2919;48.630;9.000;2022-08-19T08:19:35;19.10;99.90
5786;DHT22;2919;48.630;9.000;2022-08-19T08:22:01;19.00;99.90
5786;DHT22;2919;48.630;9.000;2022-08-19T08:24:29;19.00;99.90
5786;DHT22;2919;48.630;9.000;2022-08-19T08:26:57;19.00;99.90
5786;DHT22;2919;48.630;9.000;2022-08-19T08:29:25;19.00;99.90
5786;DHT22;2919;48.630;9.000;2022-08-19T08:31:51;19.00;99.90
5786;DHT22;2919;48.630;9.000;2022-08-19T08:34:17;19.00;99.90
5786;DHT22;2919;48.630;9.000;2022-08-19T08:36:44;19.00;99.90
5786;DHT22;2919;48.630;9.000;2022-08-19T08:39:13;19.00;99.90
5786;DHT22;2919;48.630;9.000;2022-08-19T08:47:17;18.90;99.90
5786;DHT22;2919;48.630;9.000;2022-08-19T08:49:57;18.90;99.90
5786;DHT22;2919;48.630;9.000;2022-08-19T08:52:34;19.00;99.90
5786;DHT22;2919;48.630;9.000;2022-08-19T08:55:07;19.00;99.90
5786;DHT22;2919;48.630;9.000;2022-08-19T08:57:41;19.00;99.90
5786;DHT22;2919;48.630;9.000;2022-08-19T09:00:14;19.00;99.90
5786;DHT22;2919;48.630;9.000;2022-08-19T09:02:40;19.00;99.90
5786;DHT22;2919;48.630;9.000;2022-08-19T09:05:06;19.00;99.90
5786;DHT22;2919;48.630;9.000;2022-08-19T09:10:39;19.10;99.90
5786;DHT22;2919;48.630;9.000;2022-08-19T09:15:59;19.20;99.90
5786;DHT22;2919;48.630;9.000;2022-08-19T09:18:43;19.30;99.90
5786;DHT22;2919;48.630;9.000;2022-08-19T09:21:09;19.40;99.90
5786;DHT22;2919;48.630;9.000;2022-08-19T09:23:36;19.50;99.90
5786;DHT22;2919;48.630;9.000;2022-08-19T09:26:07;19.50;99.90
5786;DHT22;2919;48.630;9.000;2022-08-19T09:28:33;19.50;99.90
5786;DHT22;2919;48.630;9.000;2022-08-19T09:30:58;19.50;99.90
5786;DHT22;2919;48.630;9.000;2022-08-19T09:33:24;19.60;99.90
5786;DHT22;2919;48.630;9.000;2022-08-19T09:35:49;19.60;99.90
5786;DHT22;2919;48.630;9.000;2022-08-19T09:38:15;19.70;99.90
5786;DHT22;2919;48.630;9.000;2022-08-19T09:40:41;19.80;99.90
5786;DHT22;2919;48.630;9.000;2022-08-19T09:43:06;19.80;99.90
5786;DHT22;2919;48.630;9.000;2022-08-19T09:45:33;19.70;99.90
5786;DHT22;2919;48.630;9.000;2022-08-19T09:48:00;19.70;99.90
5786;DHT22;2919;48.630;9.000;2022-08-19T09:50:25;19.70;99.90
5786;DHT22;2919;48.630;9.000;2022-08-19T09:52:51;19.60;99.90
5786;DHT22;2919;48.630;9.000;2022-08-19T09:55:18;19.60;99.90
5786;DHT22;2919;48.630;9.000;2022-08-19T09:57:43;19.60;99.90
5786;DHT22;2919;48.630;9.000;2022-08-19T10:00:09;19.60;99.90
5786;DHT22;2919;48.630;9.000;2022-08-19T10:02:36;19.60;99.90
5786;DHT22;2919;48.630;9.000;2022-08-19T10:05:02;19.70;99.90
5786;DHT22;2919;48.630;9.000;2022-08-19T10:07:46;19.70;99.90
5786;DHT22;2919;48.630;9.000;2022-08-19T10:10:12;19.70;99.90
5786;DHT22;2919;48.630;9.000;2022-08-19T10:12:37;19.70;99.90
5786;DHT22;2919;48.630;9.000;2022-08-19T10:15:05;19.70;99.90
5786;DHT22;2919;48.630;9.000;2022-08-19T10:17:31;19.70;99.90
5786;DHT22;2919;48.630;9.000;2022-08-19T10:19:59;19.80;99.90
5786;DHT22;2919;48.630;9.000;2022-08-19T10:22:25;19.80;99.90
5786;DHT22;2919;48.630;9.000;2022-08-19T10:24:50;19.90;99.90
5786;DHT22;2919;48.630;9.000;2022-08-19T10:27:17;19.90;99.90
5786;DHT22;2919;48.630;9.000;2022-08-19T10:29:42;19.90;99.90
5786;DHT22;2919;48.630;9.000;2022-08-19T10:32:09;20.00;99.90
5786;DHT22;2919;48.630;9.000;2022-08-19T10:34:37;20.00;99.90
5786;DHT22;2919;48.630;9.000;2022-08-19T10:37:04;20.00;99.90
5786;DHT22;2919;48.630;9.000;2022-08-19T10:39:35;20.10;99.90
5786;DHT22;2919;48.630;9.000;2022-08-19T10:42:08;20.20;99.90
5786;DHT22;2919;48.630;9.000;2022-08-19T10:44:36;20.20;99.90
5786;DHT22;2919;48.630;9.000;2022-08-19T10:47:02;20.30;99.90
5786;DHT22;2919;48.630;9.000;2022-08-19T10:49:29;20.30;99.90
5786;DHT22;2919;48.630;9.000;2022-08-19T10:51:55;20.30;99.90
5786;DHT22;2919;48.630;9.000;2022-08-19T10:54:40;20.30;99.90
5786;DHT22;2919;48.630;9.000;2022-08-19T10:57:24;20.30;99.90
5786;DHT22;2919;48.630;9.000;2022-08-19T10:59:55;20.30;99.90
5786;DHT22;2919;48.630;9.000;2022-08-19T11:02:21;20.40;99.90
5786;DHT22;2919;48.630;9.000;2022-08-19T11:04:47;20.40;99.90
5786;DHT22;2919;48.630;9.000;2022-08-19T11:07:15;20.50;99.90
5786;DHT22;2919;48.630;9.000;2022-08-19T11:09:42;20.50;99.90
5786;DHT22;2919;48.630;9.000;2022-08-19T11:12:09;20.60;99.90
5786;DHT22;2919;48.630;9.000;2022-08-19T11:14:35;20.60;99.90
5786;DHT22;2919;48.630;9.000;2022-08-19T11:17:02;20.70;99.90
5786;DHT22;2919;48.630;9.000;2022-08-19T11:19:28;20.80;99.90
5786;DHT22;2919;48.630;9.000;2022-08-19T11:21:54;20.90;99.90
5786;DHT22;2919;48.630;9.000;2022-08-19T11:24:23;20.90;99.90
5786;DHT22;2919;48.630;9.000;2022-08-19T11:26:50;20.90;99.90
5786;DHT22;2919;48.630;9.000;2022-08-19T11:29:19;21.00;99.90
5786;DHT22;2919;48.630;9.000;2022-08-19T11:31:47;21.00;99.90
5786;DHT22;2919;48.630;9.000;2022-08-19T11:34:16;21.00;99.90
5786;DHT22;2919;48.630;9.000;2022-08-19T11:36:44;21.10;99.90
5786;DHT22;2919;48.630;9.000;2022-08-19T11:39:14;21.00;99.90
5786;DHT22;2919;48.630;9.000;2022-08-19T11:41:40;21.00;99.90
5786;DHT22;2919;48.630;9.000;2022-08-19T11:44:06;21.00;99.90
5786;DHT22;2919;48.630;9.000;2022-08-19T11:46:35;21.00;99.90
5786;DHT22;2919;48.630;9.000;2022-08-19T11:49:01;21.00;99.90
5786;DHT22;2919;48.630;9.000;2022-08-19T11:51:29;20.90;99.90
5786;DHT22;2919;48.630;9.000;2022-08-19T11:53:55;20.90;99.90
5786;DHT22;2919;48.630;9.000;2022-08-19T11:56:22;20.90;99.90
5786;DHT22;2919;48.630;9.000;2022-08-19T11:58:50;21.00;99.90
5786;DHT22;2919;48.630;9.000;2022-08-19T12:01:18;21.00;99.90
5786;DHT22;2919;48.630;9.000;2022-08-19T12:03:45;21.00;99.90
5786;DHT22;2919;48.630;9.000;2022-08-19T12:06:14;21.00;99.90
5786;DHT22;2919;48.630;9.000;2022-08-19T12:08:41;21.00;99.90
5786;DHT22;2919;48.630;9.000;2022-08-19T12:11:08;21.00;99.90
5786;DHT22;2919;48.630;9.000;2022-08-19T12:13:36;21.00;99.90
5786;DHT22;2919;48.630;9.000;2022-08-19T12:16:08;21.10;99.90
5786;DHT22;2919;48.630;9.000;2022-08-19T12:18:34;21.10;99.90
5786;DHT22;2919;48.630;9.000;2022-08-19T12:21:00;21.10;99.90
5786;DHT22;2919;48.630;9.000;2022-08-19T12:23:26;21.10;99.90
5786;DHT22;2919;48.630;9.000;2022-08-19T12:25:52;21.10;99.90
5786;DHT22;2919;48.630;9.000;2022-08-19T12:28:19;21.10;99.90
5786;DHT22;2919;48.630;9.000;2022-08-19T12:30:46;21.20;99.90
5786;DHT22;2919;48.630;9.000;2022-08-19T12:33:12;21.20;99.90
5786;DHT22;2919;48.630;9.000;2022-08-19T12:35:43;21.30;99.90
5786;DHT22;2919;48.630;9.000;2022-08-19T12:38:10;21.40;99.90
5786;DHT22;2919;48.630;9.000;2022-08-19T12:40:35;21.60;99.90
5786;DHT22;2919;48.630;9.000;2022-08-19T12:43:01;21.80;99.90
5786;DHT22;2919;48.630;9.000;2022-08-19T12:45:27;21.90;99.90
5786;DHT22;2919;48.630;9.000;2022-08-19T12:47:53;22.00;99.90
5786;DHT22;2919;48.630;9.000;2022-08-19T12:50:19;22.10;99.90
5786;DHT22;2919;48.630;9.000;2022-08-19T12:52:47;22.10;99.90
5786;DHT22;2919;48.630;9.000;2022-08-19T12:55:13;22.00;99.90
5786;DHT22;2919;48.630;9.000;2022-08-19T12:57:39;21.90;99.90
5786;DHT22;2919;48.630;9.000;2022-08-19T13:00:08;21.90;99.90
5786;DHT22;2919;48.630;9.000;2022-08-19T13:02:39;22.00;98.60
5786;DHT22;2919;48.630;9.000;2022-08-19T13:05:08;21.90;98.50
5786;DHT22;2919;48.630;9.000;2022-08-19T13:07:34;21.90;97.80
5786;DHT22;2919;48.630;9.000;2022-08-19T13:10:01;22.00;95.80
5786;DHT22;2919;48.630;9.000;2022-08-19T13:12:26;22.10;95.70
5786;DHT22;2919;48.630;9.000;2022-08-19T13:14:55;22.20;95.40
5786;DHT22;2919;48.630;9.000;2022-08-19T13:17:21;22.20;95.20
5786;DHT22;2919;48.630;9.000;2022-08-19T13:19:48;22.40;94.80
5786;DHT22;2919;48.630;9.000;2022-08-19T13:22:14;22.40;94.50
5786;DHT22;2919;48.630;9.000;2022-08-19T13:24:39;22.50;94.20
5786;DHT22;2919;48.630;9.000;2022-08-19T13:27:05;22.50;94.20
5786;DHT22;2919;48.630;9.000;2022-08-19T13:29:32;22.50;94.00
5786;DHT22;2919;48.630;9.000;2022-08-19T13:32:16;22.60;94.10
5786;DHT22;2919;48.630;9.000;2022-08-19T13:35:01;22.70;93.90
5786;DHT22;2919;48.630;9.000;2022-08-19T13:37:26;22.70;92.90
5786;DHT22;2919;48.630;9.000;2022-08-19T13:40:19;22.70;92.70
5786;DHT22;2919;48.630;9.000;2022-08-19T13:42:49;22.70;93.30
5786;DHT22;2919;48.630;9.000;2022-08-19T13:45:20;22.70;94.50
5786;DHT22;2919;48.630;9.000;2022-08-19T13:47:47;22.70;94.70
5786;DHT22;2919;48.630;9.000;2022-08-19T13:50:15;22.70;94.70
5786;DHT22;2919;48.630;9.000;2022-08-19T13:52:41;22.70;94.90
5786;DHT22;2919;48.630;9.000;2022-08-19T13:55:09;22.70;94.90
5786;DHT22;2919;48.630;9.000;2022-08-19T13:57:35;22.80;94.90
5786;DHT22;2919;48.630;9.000;2022-08-19T14:00:04;22.70;95.10
5786;DHT22;2919;48.630;9.000;2022-08-19T14:02:31;22.70;95.10
5786;DHT22;2919;48.630;9.000;2022-08-19T14:04:56;22.80;95.00
5786;DHT22;2919;48.630;9.000;2022-08-19T14:07:23;22.80;95.10
5786;DHT22;2919;48.630;9.000;2022-08-19T14:09:50;22.80;94.60
5786;DHT22;2919;48.630;9.000;2022-08-19T14:12:19;22.80;95.00
5786;DHT22;2919;48.630;9.000;2022-08-19T14:14:45;23.00;94.60
5786;DHT22;2919;48.630;9.000;2022-08-19T14:17:11;23.00;94.00
5786;DHT22;2919;48.630;9.000;2022-08-19T14:19:37;23.00;94.00
5786;DHT22;2919;48.630;9.000;2022-08-19T14:22:02;23.00;94.00
5786;DHT22;2919;48.630;9.000;2022-08-19T14:24:29;23.00;94.00
5786;DHT22;2919;48.630;9.000;2022-08-19T14:26:55;23.10;94.30
5786;DHT22;2919;48.630;9.000;2022-08-19T14:29:22;23.30;94.10
5786;DHT22;2919;48.630;9.000;2022-08-19T14:31:48;23.40;94.10
5786;DHT22;2919;48.630;9.000;2022-08-19T14:34:13;23.50;93.10
5786;DHT22;2919;48.630;9.000;2022-08-19T14:36:39;23.40;93.10
5786;DHT22;2919;48.630;9.000;2022-08-19T14:39:05;23.30;92.80
5786;DHT22;2919;48.630;9.000;2022-08-19T14:41:31;23.10;93.00
5786;DHT22;2919;48.630;9.000;2022-08-19T14:43:58;23.00;93.30
5786;DHT22;2919;48.630;9.000;2022-08-19T14:46:26;22.90;92.80
5786;DHT22;2919;48.630;9.000;2022-08-19T14:48:53;22.80;93.20
5786;DHT22;2919;48.630;9.000;2022-08-19T14:51:21;22.70;93.10
5786;DHT22;2919;48.630;9.000;2022-08-19T14:53:47;22.70;93.30
5786;DHT22;2919;48.630;9.000;2022-08-19T14:56:18;22.70;93.60
5786;DHT22;2919;48.630;9.000;2022-08-19T14:58:45;22.70;93.60
5786;DHT22;2919;48.630;9.000;2022-08-19T15:01:11;22.70;93.20
5786;DHT22;2919;48.630;9.000;2022-08-19T15:03:38;22.80;93.30
5786;DHT22;2919;48.630;9.000;2022-08-19T15:06:05;22.80;92.90
5786;DHT22;2919;48.630;9.000;2022-08-19T15:08:32;22.80;92.80
5786;DHT22;2919;48.630;9.000;2022-08-19T15:11:00;22.90;93.10
5786;DHT22;2919;48.630;9.000;2022-08-19T15:13:27;23.00;92.80
5786;DHT22;2919;48.630;9.000;2022-08-19T15:15:54;23.00;92.70
5786;DHT22;2919;48.630;9.000;2022-08-19T15:18:20;23.00;92.50
5786;DHT22;2919;48.630;9.000;2022-08-19T15:20:48;23.10;92.40
5786;DHT22;2919;48.630;9.000;2022-08-19T15:23:15;23.00;92.60
5786;DHT22;2919;48.630;9.000;2022-08-19T15:25:42;23.10;92.10
5786;DHT22;2919;48.630;9.000;2022-08-19T15:28:09;23.10;92.30
5786;DHT22;2919;48.630;9.000;2022-08-19T15:30:37;23.30;92.60
5786;DHT22;2919;48.630;9.000;2022-08-19T15:33:03;23.40;92.10
5786;DHT22;2919;48.630;9.000;2022-08-19T15:35:29;23.40;92.50
5786;DHT22;2919;48.630;9.000;2022-08-19T15:37:55;23.50;92.70
5786;DHT22;2919;48.630;9.000;2022-08-19T15:40:22;23.60;92.40
5786;DHT22;2919;48.630;9.000;2022-08-19T15:42:48;23.80;92.10
5786;DHT22;2919;48.630;9.000;2022-08-19T15:45:16;23.80;92.40
5786;DHT22;2919;48.630;9.000;2022-08-19T15:47:42;23.90;91.70
5786;DHT22;2919;48.630;9.000;2022-08-19T15:50:12;23.80;92.10
5786;DHT22;2919;48.630;9.000;2022-08-19T15:53:08;23.90;92.00
5786;DHT22;2919;48.630;9.000;2022-08-19T15:55:40;24.10;91.80
5786;DHT22;2919;48.630;9.000;2022-08-19T15:58:10;24.00;92.20
5786;DHT22;2919;48.630;9.000;2022-08-19T16:01:03;24.00;91.60
5786;DHT22;2919;48.630;9.000;2022-08-19T16:03:48;24.00;92.10
5786;DHT22;2919;48.630;9.000;2022-08-19T16:06:34;24.10;91.20
5786;DHT22;2919;48.630;9.000;2022-08-19T16:09:02;24.00;91.50
5786;DHT22;2919;48.630;9.000;2022-08-19T16:11:31;24.00;91.90
5786;DHT22;2919;48.630;9.000;2022-08-19T16:13:58;23.90;91.50
5786;DHT22;2919;48.630;9.000;2022-08-19T16:16:27;23.90;91.60
5786;DHT22;2919;48.630;9.000;2022-08-19T16:18:55;23.80;91.60
5786;DHT22;2919;48.630;9.000;2022-08-19T16:21:22;23.80;91.50
5786;DHT22;2919;48.630;9.000;2022-08-19T16:23:49;23.70;91.70
5786;DHT22;2919;48.630;9.000;2022-08-19T16:26:17;23.80;91.80
5786;DHT22;2919;48.630;9.000;2022-08-19T16:28:44;23.80;91.70
5786;DHT22;2919;48.630;9.000;2022-08-19T16:31:12;23.80;92.30